sensor_id;sensor_type;location;lat;lon;timestamp;temperature;humidity
9544;DHT22;30418;51.45933468;7.33152330;2023-04-29T00:02:25;15.70;66.40
9544;DHT22;30418;51.45933468;7.33152330;2023-04-29T00:04:57;15.60;66.30
9544;DHT22;30418;51.45933468;7.33152330;2023-04-29T00:07:26;15.60;66.30
9544;DHT22;30418;51.45933468;7.33152330;2023-04-29T00:09:55;15.60;67.20
9544;DHT22;30418;51.45933468;7.33152330;2023-04-29T00:12:24;15.60;66.20
9544;DHT22;30418;51.45933468;7.33152330;2023-04-29T00:14:53;15.60;66.20
9544;DHT22;30418;51.45933468;7.33152330;2023-04-29T00:17:23;15.60;66.20
9544;DHT22;30418;51.45933468;7.33152330;2023-04-29T00:19:52;15.60;66.30
9544;DHT22;30418;51.45933468;7.33152330;2023-04-29T00:22:21;15.60;66.30
9544;DHT22;30418;51.45933468;7.33152330;2023-04-29T00:24:49;15.60;66.30
9544;DHT22;30418;51.45933468;7.33152330;2023-04-29T00:27:19;15.60;66.30
9544;DHT22;30418;51.45933468;7.33152330;2023-04-29T00:29:47;15.60;66.20
9544;DHT22;30418;51.45933468;7.33152330;2023-04-29T00:32:15;15.60;66.20
9544;DHT22;30418;51.45933468;7.33152330;2023-04-29T00:34:45;15.60;66.20
9544;DHT22;30418;51.45933468;7.33152330;2023-04-29T00:37:14;15.60;66.10
9544;DHT22;30418;51.45933468;7.33152330;2023-04-29T00:39:43;15.50;66.00
9544;DHT22;30418;51.45933468;7.33152330;2023-04-29T00:42:11;15.50;66.00
9544;DHT22;30418;51.45933468;7.33152330;2023-04-29T00:44:40;15.50;66.10
9544;DHT22;30418;51.45933468;7.33152330;2023-04-29T00:47:08;15.50;66.00
9544;DHT22;30418;51.45933468;7.33152330;2023-04-29T00:49:38;15.50;66.00
9544;DHT22;30418;51.45933468;7.33152330;2023-04-29T00:52:10;15.40;66.00
9544;DHT22;30418;51.45933468;7.33152330;2023-04-29T00:54:40;15.40;66.00
9544;DHT22;30418;51.45933468;7.33152330;2023-04-29T00:57:09;15.40;66.00
9544;DHT22;30418;51.45933468;7.33152330;2023-04-29T00:59:38;15.40;66.00
9544;DHT22;30418;51.45933468;7.33152330;2023-04-29T01:02:07;15.40;66.00
9544;DHT22;30418;51.45933468;7.33152330;2023-04-29T01:04:35;15.40;66.00
9544;DHT22;30418;51.45933468;7.33152330;2023-04-29T01:07:11;15.30;65.90
9544;DHT22;30418;51.45933468;7.33152330;2023-04-29T01:09:54;15.40;66.20
9544;DHT22;30418;51.45933468;7.33152330;2023-04-29T01:12:33;15.30;66.10
9544;DHT22;30418;51.45933468;7.33152330;2023-04-29T01:15:11;15.30;66.00
9544;DHT22;30418;51.45933468;7.33152330;2023-04-29T01:17:50;15.30;66.00
9544;DHT22;30418;51.45933468;7.33152330;2023-04-29T01:20:23;15.30;66.00
9544;DHT22;30418;51.45933468;7.33152330;2023-04-29T01:22:54;15.30;66.00
9544;DHT22;30418;51.45933468;7.33152330;2023-04-29T01:25:25;15.30;66.00
9544;DHT22;30418;51.45933468;7.33152330;2023-04-29T01:28:38;15.30;66.00
9544;DHT22;30418;51.45933468;7.33152330;2023-04-29T01:31:17;15.20;66.10
9544;DHT22;30418;51.45933468;7.33152330;2023-04-29T01:34:04;15.20;66.10
9544;DHT22;30418;51.45933468;7.33152330;2023-04-29T01:36:42;15.20;66.10
9544;DHT22;30418;51.45933468;7.33152330;2023-04-29T01:39:26;15.10;66.10
9544;DHT22;30418;51.45933468;7.33152330;2023-04-29T01:42:14;15.20;66.30
9544;DHT22;30418;51.45933468;7.33152330;2023-04-29T01:44:48;15.10;66.20
9544;DHT22;30418;51.45933468;7.33152330;2023-04-29T01:47:21;15.00;66.00
9544;DHT22;30418;51.45933468;7.33152330;2023-04-29T01:49:52;15.00;66.20
9544;DHT22;30418;51.45933468;7.33152330;2023-04-29T01:52:21;15.00;66.30
9544;DHT22;30418;51.45933468;7.33152330;2023-04-29T01:54:54;15.00;66.40
9544;DHT22;30418;51.45933468;7.33152330;2023-04-29T01:57:26;14.90;67.20
9544;DHT22;30418;51.45933468;7.33152330;2023-04-29T02:00:10;14.90;66.60
9544;DHT22;30418;51.45933468;7.33152330;2023-04-29T02:02:39;14.90;66.50
9544;DHT22;30418;51.45933468;7.33152330;2023-04-29T02:05:18;14.90;66.60
9544;DHT22;30418;51.45933468;7.33152330;2023-04-29T02:07:54;14.90;66.70
9544;DHT22;30418;51.45933468;7.33152330;2023-04-29T02:10:22;14.90;67.50
9544;DHT22;30418;51.45933468;7.33152330;2023-04-29T02:13:01;14.90;66.70
9544;DHT22;30418;51.45933468;7.33152330;2023-04-29T02:15:30;14.90;66.70
9544;DHT22;30418;51.45933468;7.33152330;2023-04-29T02:17:59;14.80;66.60
9544;DHT22;30418;51.45933468;7.33152330;2023-04-29T02:20:27;14.90;66.70
9544;DHT22;30418;51.45933468;7.33152330;2023-04-29T02:22:56;14.80;66.60
9544;DHT22;30418;51.45933468;7.33152330;2023-04-29T02:25:24;14.80;66.70
9544;DHT22;30418;51.45933468;7.33152330;2023-04-29T02:27:53;14.80;66.70
9544;DHT22;30418;51.45933468;7.33152330;2023-04-29T02:30:22;14.80;66.70
9544;DHT22;30418;51.45933468;7.33152330;2023-04-29T02:32:51;14.70;66.60
9544;DHT22;30418;51.45933468;7.33152330;2023-04-29T02:35:20;14.70;66.50
9544;DHT22;30418;51.45933468;7.33152330;2023-04-29T02:37:48;14.60;66.40
9544;DHT22;30418;51.45933468;7.33152330;2023-04-29T02:40:17;14.60;67.30
9544;DHT22;30418;51.45933468;7.33152330;2023-04-29T02:42:46;14.50;66.30
9544;DHT22;30418;51.45933468;7.33152330;2023-04-29T02:45:14;14.50;66.40
9544;DHT22;30418;51.45933468;7.33152330;2023-04-29T02:47:45;14.50;66.50
9544;DHT22;30418;51.45933468;7.33152330;2023-04-29T02:50:13;14.30;66.40
9544;DHT22;30418;51.45933468;7.33152330;2023-04-29T02:52:42;14.40;66.50
9544;DHT22;30418;51.45933468;7.33152330;2023-04-29T02:55:11;14.30;66.40
9544;DHT22;30418;51.45933468;7.33152330;2023-04-29T02:57:39;14.30;66.40
9544;DHT22;30418;51.45933468;7.33152330;2023-04-29T03:00:10;14.30;66.50
9544;DHT22;30418;51.45933468;7.33152330;2023-04-29T03:02:38;14.30;66.60
9544;DHT22;30418;51.45933468;7.33152330;2023-04-29T03:05:09;14.30;66.70
9544;DHT22;30418;51.45933468;7.33152330;2023-04-29T03:07:37;14.30;66.90
9544;DHT22;30418;51.45933468;7.33152330;2023-04-29T03:10:07;14.30;67.00
9544;DHT22;30418;51.45933468;7.33152330;2023-04-29T03:12:38;14.30;67.00
9544;DHT22;30418;51.45933468;7.33152330;2023-04-29T03:15:07;14.30;67.00
9544;DHT22;30418;51.45933468;7.33152330;2023-04-29T03:17:37;14.30;67.10
9544;DHT22;30418;51.45933468;7.33152330;2023-04-29T03:20:06;14.30;67.00
9544;DHT22;30418;51.45933468;7.33152330;2023-04-29T03:22:38;14.30;67.10
9544;DHT22;30418;51.45933468;7.33152330;2023-04-29T03:25:07;14.30;67.00
9544;DHT22;30418;51.45933468;7.33152330;2023-04-29T03:27:38;14.30;66.90
9544;DHT22;30418;51.45933468;7.33152330;2023-04-29T03:30:09;14.30;66.90
9544;DHT22;30418;51.45933468;7.33152330;2023-04-29T03:32:45;14.30;66.80
9544;DHT22;30418;51.45933468;7.33152330;2023-04-29T03:35:15;14.30;66.70
9544;DHT22;30418;51.45933468;7.33152330;2023-04-29T03:38:06;14.30;66.80
9544;DHT22;30418;51.45933468;7.33152330;2023-04-29T03:40:37;14.30;66.70
9544;DHT22;30418;51.45933468;7.33152330;2023-04-29T03:43:05;14.30;66.70
9544;DHT22;30418;51.45933468;7.33152330;2023-04-29T03:45:35;14.30;66.80
9544;DHT22;30418;51.45933468;7.33152330;2023-04-29T03:48:05;14.30;66.80
9544;DHT22;30418;51.45933468;7.33152330;2023-04-29T03:50:36;14.20;66.80
9544;DHT22;30418;51.45933468;7.33152330;2023-04-29T03:53:04;14.20;67.00
9544;DHT22;30418;51.45933468;7.33152330;2023-04-29T03:55:34;14.20;67.00
9544;DHT22;30418;51.45933468;7.33152330;2023-04-29T03:58:02;14.20;67.00
9544;DHT22;30418;51.45933468;7.33152330;2023-04-29T04:00:31;14.20;67.00
9544;DHT22;30418;51.45933468;7.33152330;2023-04-29T04:03:04;14.20;67.00
9544;DHT22;30418;51.45933468;7.33152330;2023-04-29T04:05:36;14.20;67.00
9544;DHT22;30418;51.45933468;7.33152330;2023-04-29T04:08:08;14.20;67.00
9544;DHT22;30418;51.45933468;7.33152330;2023-04-29T04:10:46;14.20;66.90
9544;DHT22;30418;51.45933468;7.33152330;2023-04-29T04:13:29;14.20;67.80
9544;DHT22;30418;51.45933468;7.33152330;2023-04-29T04:15:57;14.20;67.00
9544;DHT22;30418;51.45933468;7.33152330;2023-04-29T04:18:26;14.20;67.00
9544;DHT22;30418;51.45933468;7.33152330;2023-04-29T04:20:57;14.20;67.00
9544;DHT22;30418;51.45933468;7.33152330;2023-04-29T04:23:25;14.20;67.00
9544;DHT22;30418;51.45933468;7.33152330;2023-04-29T04:25:54;14.20;67.00
9544;DHT22;30418;51.45933468;7.33152330;2023-04-29T04:28:50;14.20;67.00
9544;DHT22;30418;51.45933468;7.33152330;2023-04-29T04:31:27;14.10;66.80
9544;DHT22;30418;51.45933468;7.33152330;2023-04-29T04:33:57;14.10;66.90
9544;DHT22;30418;51.45933468;7.33152330;2023-04-29T04:36:31;14.10;67.00
9544;DHT22;30418;51.45933468;7.33152330;2023-04-29T04:39:00;14.10;67.00
9544;DHT22;30418;51.45933468;7.33152330;2023-04-29T04:41:28;14.10;66.90
9544;DHT22;30418;51.45933468;7.33152330;2023-04-29T04:43:59;14.10;66.80
9544;DHT22;30418;51.45933468;7.33152330;2023-04-29T04:46:40;14.10;66.80
9544;DHT22;30418;51.45933468;7.33152330;2023-04-29T04:49:16;14.10;66.90
9544;DHT22;30418;51.45933468;7.33152330;2023-04-29T04:51:51;14.00;66.80
9544;DHT22;30418;51.45933468;7.33152330;2023-04-29T04:54:19;14.00;67.00
9544;DHT22;30418;51.45933468;7.33152330;2023-04-29T04:56:52;14.00;67.10
9544;DHT22;30418;51.45933468;7.33152330;2023-04-29T04:59:20;14.00;67.20
9544;DHT22;30418;51.45933468;7.33152330;2023-04-29T05:01:49;14.00;67.20
9544;DHT22;30418;51.45933468;7.33152330;2023-04-29T05:04:17;14.00;67.30
9544;DHT22;30418;51.45933468;7.33152330;2023-04-29T05:06:46;14.00;67.30
9544;DHT22;30418;51.45933468;7.33152330;2023-04-29T05:09:19;14.00;67.30
9544;DHT22;30418;51.45933468;7.33152330;2023-04-29T05:11:47;14.10;67.40
9544;DHT22;30418;51.45933468;7.33152330;2023-04-29T05:14:17;14.10;67.40
9544;DHT22;30418;51.45933468;7.33152330;2023-04-29T05:16:46;14.00;67.20
9544;DHT22;30418;51.45933468;7.33152330;2023-04-29T05:19:14;14.10;67.30
9544;DHT22;30418;51.45933468;7.33152330;2023-04-29T05:21:44;14.10;67.20
9544;DHT22;30418;51.45933468;7.33152330;2023-04-29T05:24:12;14.00;67.10
9544;DHT22;30418;51.45933468;7.33152330;2023-04-29T05:26:42;14.10;67.20
9544;DHT22;30418;51.45933468;7.33152330;2023-04-29T05:29:11;14.10;67.10
9544;DHT22;30418;51.45933468;7.33152330;2023-04-29T05:31:49;14.00;67.00
9544;DHT22;30418;51.45933468;7.33152330;2023-04-29T05:34:18;14.00;67.10
9544;DHT22;30418;51.45933468;7.33152330;2023-04-29T05:36:47;14.00;67.10
9544;DHT22;30418;51.45933468;7.33152330;2023-04-29T05:39:15;14.00;67.20
9544;DHT22;30418;51.45933468;7.33152330;2023-04-29T05:41:50;14.00;67.20
9544;DHT22;30418;51.45933468;7.33152330;2023-04-29T05:44:32;14.10;67.40
9544;DHT22;30418;51.45933468;7.33152330;2023-04-29T05:47:00;14.00;67.20
9544;DHT22;30418;51.45933468;7.33152330;2023-04-29T05:49:29;14.00;67.10
9544;DHT22;30418;51.45933468;7.33152330;2023-04-29T05:51:57;14.00;67.00
9544;DHT22;30418;51.45933468;7.33152330;2023-04-29T05:54:30;14.00;67.00
9544;DHT22;30418;51.45933468;7.33152330;2023-04-29T05:57:01;14.00;67.10
9544;DHT22;30418;51.45933468;7.33152330;2023-04-29T05:59:30;14.00;67.20
9544;DHT22;30418;51.45933468;7.33152330;2023-04-29T06:02:03;14.00;67.20
9544;DHT22;30418;51.45933468;7.33152330;2023-04-29T06:04:33;14.00;67.20
9544;DHT22;30418;51.45933468;7.33152330;2023-04-29T06:07:19;14.00;67.20
9544;DHT22;30418;51.45933468;7.33152330;2023-04-29T06:09:53;14.00;67.00
9544;DHT22;30418;51.45933468;7.33152330;2023-04-29T06:12:26;14.00;67.10
9544;DHT22;30418;51.45933468;7.33152330;2023-04-29T06:14:56;14.00;67.20
9544;DHT22;30418;51.45933468;7.33152330;2023-04-29T06:17:26;14.00;67.20
9544;DHT22;30418;51.45933468;7.33152330;2023-04-29T06:19:55;14.00;67.30
9544;DHT22;30418;51.45933468;7.33152330;2023-04-29T06:22:23;14.00;67.30
9544;DHT22;30418;51.45933468;7.33152330;2023-04-29T06:24:56;14.00;67.30
9544;DHT22;30418;51.45933468;7.33152330;2023-04-29T06:27:36;14.00;67.30
9544;DHT22;30418;51.45933468;7.33152330;2023-04-29T06:30:06;14.00;67.40
9544;DHT22;30418;51.45933468;7.33152330;2023-04-29T06:32:37;14.00;67.30
9544;DHT22;30418;51.45933468;7.33152330;2023-04-29T06:35:06;14.00;67.30
9544;DHT22;30418;51.45933468;7.33152330;2023-04-29T06:37:55;14.00;67.20
9544;DHT22;30418;51.45933468;7.33152330;2023-04-29T06:40:33;14.00;67.10
9544;DHT22;30418;51.45933468;7.33152330;2023-04-29T06:43:03;14.00;67.00
9544;DHT22;30418;51.45933468;7.33152330;2023-04-29T06:45:34;14.00;67.10
9544;DHT22;30418;51.45933468;7.33152330;2023-04-29T06:48:08;14.00;67.10
9544;DHT22;30418;51.45933468;7.33152330;2023-04-29T06:50:51;14.00;67.10
9544;DHT22;30418;51.45933468;7.33152330;2023-04-29T06:53:21;14.00;67.20
9544;DHT22;30418;51.45933468;7.33152330;2023-04-29T06:55:50;14.00;67.20
9544;DHT22;30418;51.45933468;7.33152330;2023-04-29T06:58:21;14.00;67.10
9544;DHT22;30418;51.45933468;7.33152330;2023-04-29T07:00:50;14.00;67.10
9544;DHT22;30418;51.45933468;7.33152330;2023-04-29T07:03:21;14.00;67.10
9544;DHT22;30418;51.45933468;7.33152330;2023-04-29T07:05:50;14.00;67.10
9544;DHT22;30418;51.45933468;7.33152330;2023-04-29T07:08:18;14.00;67.10
9544;DHT22;30418;51.45933468;7.33152330;2023-04-29T07:10:53;14.00;67.10
9544;DHT22;30418;51.45933468;7.33152330;2023-04-29T07:13:24;14.00;67.30
9544;DHT22;30418;51.45933468;7.33152330;2023-04-29T07:15:53;14.00;67.20
9544;DHT22;30418;51.45933468;7.33152330;2023-04-29T07:18:21;14.00;67.10
9544;DHT22;30418;51.45933468;7.33152330;2023-04-29T07:20:49;14.00;67.10
9544;DHT22;30418;51.45933468;7.33152330;2023-04-29T07:23:18;14.00;67.00
9544;DHT22;30418;51.45933468;7.33152330;2023-04-29T07:25:47;14.00;67.10
9544;DHT22;30418;51.45933468;7.33152330;2023-04-29T07:28:16;14.00;67.00
9544;DHT22;30418;51.45933468;7.33152330;2023-04-29T07:30:46;14.00;67.00
9544;DHT22;30418;51.45933468;7.33152330;2023-04-29T07:33:15;13.90;67.00
9544;DHT22;30418;51.45933468;7.33152330;2023-04-29T07:35:44;13.90;66.90
9544;DHT22;30418;51.45933468;7.33152330;2023-04-29T07:38:13;13.90;66.90
9544;DHT22;30418;51.45933468;7.33152330;2023-04-29T07:40:42;13.90;67.00
9544;DHT22;30418;51.45933468;7.33152330;2023-04-29T07:43:10;13.90;67.10
9544;DHT22;30418;51.45933468;7.33152330;2023-04-29T07:45:39;13.80;67.10
9544;DHT22;30418;51.45933468;7.33152330;2023-04-29T07:48:09;13.80;67.10
9544;DHT22;30418;51.45933468;7.33152330;2023-04-29T07:50:37;13.80;67.20
9544;DHT22;30418;51.45933468;7.33152330;2023-04-29T07:53:06;13.80;67.20
9544;DHT22;30418;51.45933468;7.33152330;2023-04-29T07:55:36;13.80;67.30
9544;DHT22;30418;51.45933468;7.33152330;2023-04-29T07:58:05;13.80;67.40
9544;DHT22;30418;51.45933468;7.33152330;2023-04-29T08:00:34;13.80;67.30
9544;DHT22;30418;51.45933468;7.33152330;2023-04-29T08:03:02;13.80;67.30
9544;DHT22;30418;51.45933468;7.33152330;2023-04-29T08:05:33;13.80;67.30
9544;DHT22;30418;51.45933468;7.33152330;2023-04-29T08:08:02;13.80;67.40
9544;DHT22;30418;51.45933468;7.33152330;2023-04-29T08:10:31;13.70;68.10
9544;DHT22;30418;51.45933468;7.33152330;2023-04-29T08:13:02;13.70;67.20
9544;DHT22;30418;51.45933468;7.33152330;2023-04-29T08:15:31;13.70;67.20
9544;DHT22;30418;51.45933468;7.33152330;2023-04-29T08:17:59;13.70;67.20
9544;DHT22;30418;51.45933468;7.33152330;2023-04-29T08:20:28;13.70;67.40
9544;DHT22;30418;51.45933468;7.33152330;2023-04-29T08:22:59;13.70;67.50
9544;DHT22;30418;51.45933468;7.33152330;2023-04-29T08:25:28;13.70;67.70
9544;DHT22;30418;51.45933468;7.33152330;2023-04-29T08:27:56;13.60;67.50
9544;DHT22;30418;51.45933468;7.33152330;2023-04-29T08:30:25;13.70;67.60
9544;DHT22;30418;51.45933468;7.33152330;2023-04-29T08:32:54;13.60;67.50
9544;DHT22;30418;51.45933468;7.33152330;2023-04-29T08:35:22;13.60;67.70
9544;DHT22;30418;51.45933468;7.33152330;2023-04-29T08:37:52;13.60;67.80
9544;DHT22;30418;51.45933468;7.33152330;2023-04-29T08:40:22;13.60;67.80
9544;DHT22;30418;51.45933468;7.33152330;2023-04-29T08:42:53;13.60;67.80
9544;DHT22;30418;51.45933468;7.33152330;2023-04-29T08:45:23;13.60;67.90
9544;DHT22;30418;51.45933468;7.33152330;2023-04-29T08:47:53;13.60;67.90
9544;DHT22;30418;51.45933468;7.33152330;2023-04-29T08:50:23;13.70;68.00
9544;DHT22;30418;51.45933468;7.33152330;2023-04-29T08:52:51;13.70;68.10
9544;DHT22;30418;51.45933468;7.33152330;2023-04-29T08:55:21;13.70;68.00
9544;DHT22;30418;51.45933468;7.33152330;2023-04-29T08:57:53;13.70;67.90
9544;DHT22;30418;51.45933468;7.33152330;2023-04-29T09:00:23;13.70;67.90
9544;DHT22;30418;51.45933468;7.33152330;2023-04-29T09:02:53;13.70;67.90
9544;DHT22;30418;51.45933468;7.33152330;2023-04-29T09:05:24;13.70;67.90
9544;DHT22;30418;51.45933468;7.33152330;2023-04-29T09:07:56;13.60;67.90
9544;DHT22;30418;51.45933468;7.33152330;2023-04-29T09:10:27;13.60;67.90
9544;DHT22;30418;51.45933468;7.33152330;2023-04-29T09:12:55;13.60;68.00
9544;DHT22;30418;51.45933468;7.33152330;2023-04-29T09:15:24;13.60;68.00
9544;DHT22;30418;51.45933468;7.33152330;2023-04-29T09:17:53;13.70;68.10
9544;DHT22;30418;51.45933468;7.33152330;2023-04-29T09:20:28;13.60;68.00
9544;DHT22;30418;51.45933468;7.33152330;2023-04-29T09:22:59;13.70;68.30
9544;DHT22;30418;51.45933468;7.33152330;2023-04-29T09:25:30;13.70;68.30
9544;DHT22;30418;51.45933468;7.33152330;2023-04-29T09:28:13;13.70;69.10
9544;DHT22;30418;51.45933468;7.33152330;2023-04-29T09:30:46;13.70;68.30
9544;DHT22;30418;51.45933468;7.33152330;2023-04-29T09:33:16;13.70;68.20
9544;DHT22;30418;51.45933468;7.33152330;2023-04-29T09:35:45;13.70;68.10
9544;DHT22;30418;51.45933468;7.33152330;2023-04-29T09:38:15;13.70;68.10
9544;DHT22;30418;51.45933468;7.33152330;2023-04-29T09:40:46;13.70;68.20
9544;DHT22;30418;51.45933468;7.33152330;2023-04-29T09:43:25;13.70;68.20
9544;DHT22;30418;51.45933468;7.33152330;2023-04-29T09:45:54;13.70;68.20
9544;DHT22;30418;51.45933468;7.33152330;2023-04-29T09:48:30;13.70;68.30
9544;DHT22;30418;51.45933468;7.33152330;2023-04-29T09:51:01;13.70;68.60
9544;DHT22;30418;51.45933468;7.33152330;2023-04-29T09:53:30;13.70;68.60
9544;DHT22;30418;51.45933468;7.33152330;2023-04-29T09:56:01;13.80;68.70
9544;DHT22;30418;51.45933468;7.33152330;2023-04-29T09:58:32;13.80;69.00
9544;DHT22;30418;51.45933468;7.33152330;2023-04-29T10:01:04;13.90;69.10
9544;DHT22;30418;51.45933468;7.33152330;2023-04-29T10:03:34;14.00;69.10
9544;DHT22;30418;51.45933468;7.33152330;2023-04-29T10:06:06;14.00;69.90
9544;DHT22;30418;51.45933468;7.33152330;2023-04-29T10:08:35;14.00;69.10
9544;DHT22;30418;51.45933468;7.33152330;2023-04-29T10:11:05;14.10;69.30
9544;DHT22;30418;51.45933468;7.33152330;2023-04-29T10:13:34;14.10;69.10
9544;DHT22;30418;51.45933468;7.33152330;2023-04-29T10:16:12;14.20;69.00
9544;DHT22;30418;51.45933468;7.33152330;2023-04-29T10:18:48;14.20;69.10
9544;DHT22;30418;51.45933468;7.33152330;2023-04-29T10:21:26;14.20;68.90
9544;DHT22;30418;51.45933468;7.33152330;2023-04-29T10:23:56;14.30;68.90
9544;DHT22;30418;51.45933468;7.33152330;2023-04-29T10:26:28;14.30;69.00
9544;DHT22;30418;51.45933468;7.33152330;2023-04-29T10:28:59;14.40;69.20
9544;DHT22;30418;51.45933468;7.33152330;2023-04-29T10:31:28;14.40;69.00
9544;DHT22;30418;51.45933468;7.33152330;2023-04-29T10:33:57;14.50;69.00
9544;DHT22;30418;51.45933468;7.33152330;2023-04-29T10:36:28;14.50;69.00
9544;DHT22;30418;51.45933468;7.33152330;2023-04-29T10:39:00;14.50;69.00
9544;DHT22;30418;51.45933468;7.33152330;2023-04-29T10:41:36;14.60;68.80
9544;DHT22;30418;51.45933468;7.33152330;2023-04-29T10:44:11;14.60;68.80
9544;DHT22;30418;51.45933468;7.33152330;2023-04-29T10:46:40;14.70;68.70
9544;DHT22;30418;51.45933468;7.33152330;2023-04-29T10:49:09;14.70;68.60
9544;DHT22;30418;51.45933468;7.33152330;2023-04-29T10:51:40;14.70;68.50
9544;DHT22;30418;51.45933468;7.33152330;2023-04-29T10:54:12;14.80;68.20
9544;DHT22;30418;51.45933468;7.33152330;2023-04-29T10:56:43;14.80;68.10
9544;DHT22;30418;51.45933468;7.33152330;2023-04-29T10:59:19;14.80;68.10
9544;DHT22;30418;51.45933468;7.33152330;2023-04-29T11:01:49;14.80;68.30
9544;DHT22;30418;51.45933468;7.33152330;2023-04-29T11:04:19;14.90;68.30
9544;DHT22;30418;51.45933468;7.33152330;2023-04-29T11:06:51;14.90;68.20
9544;DHT22;30418;51.45933468;7.33152330;2023-04-29T11:09:24;15.00;68.40
9544;DHT22;30418;51.45933468;7.33152330;2023-04-29T11:11:59;15.00;68.20
9544;DHT22;30418;51.45933468;7.33152330;2023-04-29T11:14:31;15.10;68.20
9544;DHT22;30418;51.45933468;7.33152330;2023-04-29T11:17:06;15.10;68.10
9544;DHT22;30418;51.45933468;7.33152330;2023-04-29T11:19:40;15.10;67.80
9544;DHT22;30418;51.45933468;7.33152330;2023-04-29T11:22:13;15.20;67.90
9544;DHT22;30418;51.45933468;7.33152330;2023-04-29T11:24:53;15.20;68.60
9544;DHT22;30418;51.45933468;7.33152330;2023-04-29T11:27:26;15.30;67.50
9544;DHT22;30418;51.45933468;7.33152330;2023-04-29T11:30:00;15.30;67.60
9544;DHT22;30418;51.45933468;7.33152330;2023-04-29T11:32:32;15.40;67.50
9544;DHT22;30418;51.45933468;7.33152330;2023-04-29T11:35:09;15.40;67.30
9544;DHT22;30418;51.45933468;7.33152330;2023-04-29T11:37:38;15.40;66.80
9544;DHT22;30418;51.45933468;7.33152330;2023-04-29T11:40:08;15.40;66.70
9544;DHT22;30418;51.45933468;7.33152330;2023-04-29T11:42:43;15.50;67.70
9544;DHT22;30418;51.45933468;7.33152330;2023-04-29T11:45:13;15.50;66.80
9544;DHT22;30418;51.45933468;7.33152330;2023-04-29T11:47:42;15.50;66.70
9544;DHT22;30418;51.45933468;7.33152330;2023-04-29T11:50:15;15.50;66.70
9544;DHT22;30418;51.45933468;7.33152330;2023-04-29T11:52:47;15.60;66.20
9544;DHT22;30418;51.45933468;7.33152330;2023-04-29T11:55:16;15.60;66.10
9544;DHT22;30418;51.45933468;7.33152330;2023-04-29T11:57:48;15.60;66.10
9544;DHT22;30418;51.45933468;7.33152330;2023-04-29T12:00:18;15.70;66.10
9544;DHT22;30418;51.45933468;7.33152330;2023-04-29T12:02:47;15.60;65.80
9544;DHT22;30418;51.45933468;7.33152330;2023-04-29T12:05:16;15.70;65.70
9544;DHT22;30418;51.45933468;7.33152330;2023-04-29T12:07:45;15.70;65.80
9544;DHT22;30418;51.45933468;7.33152330;2023-04-29T12:10:16;15.70;65.50
9544;DHT22;30418;51.45933468;7.33152330;2023-04-29T12:12:46;15.70;65.40
9544;DHT22;30418;51.45933468;7.33152330;2023-04-29T12:15:15;15.70;65.30
9544;DHT22;30418;51.45933468;7.33152330;2023-04-29T12:17:44;15.70;65.30
9544;DHT22;30418;51.45933468;7.33152330;2023-04-29T12:20:13;15.70;65.10
9544;DHT22;30418;51.45933468;7.33152330;2023-04-29T12:22:42;15.80;65.10
9544;DHT22;30418;51.45933468;7.33152330;2023-04-29T12:25:11;15.90;65.20
9544;DHT22;30418;51.45933468;7.33152330;2023-04-29T12:27:40;15.80;65.10
9544;DHT22;30418;51.45933468;7.33152330;2023-04-29T12:30:11;15.90;65.00
9544;DHT22;30418;51.45933468;7.33152330;2023-04-29T12:32:40;15.90;64.90
9544;DHT22;30418;51.45933468;7.33152330;2023-04-29T12:35:14;15.90;64.60
9544;DHT22;30418;51.45933468;7.33152330;2023-04-29T12:37:47;15.90;64.50
9544;DHT22;30418;51.45933468;7.33152330;2023-04-29T12:40:16;15.90;64.70
9544;DHT22;30418;51.45933468;7.33152330;2023-04-29T12:42:47;15.90;64.50
9544;DHT22;30418;51.45933468;7.33152330;2023-04-29T12:45:28;15.90;64.40
9544;DHT22;30418;51.45933468;7.33152330;2023-04-29T12:47:58;16.00;64.00
9544;DHT22;30418;51.45933468;7.33152330;2023-04-29T12:50:31;16.00;64.00
9544;DHT22;30418;51.45933468;7.33152330;2023-04-29T12:53:01;16.00;64.10
9544;DHT22;30418;51.45933468;7.33152330;2023-04-29T12:55:31;16.00;64.00
9544;DHT22;30418;51.45933468;7.33152330;2023-04-29T12:58:01;16.00;64.00
9544;DHT22;30418;51.45933468;7.33152330;2023-04-29T13:00:31;16.00;64.00
9544;DHT22;30418;51.45933468;7.33152330;2023-04-29T13:03:03;16.00;64.00
9544;DHT22;30418;51.45933468;7.33152330;2023-04-29T13:05:32;16.00;64.00
9544;DHT22;30418;51.45933468;7.33152330;2023-04-29T13:08:01;16.10;64.10
9544;DHT22;30418;51.45933468;7.33152330;2023-04-29T13:10:31;16.10;63.80
9544;DHT22;30418;51.45933468;7.33152330;2023-04-29T13:13:00;16.10;63.70
9544;DHT22;30418;51.45933468;7.33152330;2023-04-29T13:15:28;16.10;63.40
9544;DHT22;30418;51.45933468;7.33152330;2023-04-29T13:18:00;16.10;63.00
9544;DHT22;30418;51.45933468;7.33152330;2023-04-29T13:20:29;16.10;62.80
9544;DHT22;30418;51.45933468;7.33152330;2023-04-29T13:22:58;16.10;62.90
9544;DHT22;30418;51.45933468;7.33152330;2023-04-29T13:25:26;16.10;62.90
9544;DHT22;30418;51.45933468;7.33152330;2023-04-29T13:27:55;16.10;62.90
9544;DHT22;30418;51.45933468;7.33152330;2023-04-29T13:30:23;16.10;62.90
9544;DHT22;30418;51.45933468;7.33152330;2023-04-29T13:32:52;16.10;62.80
9544;DHT22;30418;51.45933468;7.33152330;2023-04-29T13:35:31;16.10;62.80
9544;DHT22;30418;51.45933468;7.33152330;2023-04-29T13:38:01;16.10;62.90
9544;DHT22;30418;51.45933468;7.33152330;2023-04-29T13:40:30;16.10;62.80
9544;DHT22;30418;51.45933468;7.33152330;2023-04-29T13:43:05;16.10;62.70
9544;DHT22;30418;51.45933468;7.33152330;2023-04-29T13:45:35;16.10;62.50
9544;DHT22;30418;51.45933468;7.33152330;2023-04-29T13:48:08;16.10;62.30
9544;DHT22;30418;51.45933468;7.33152330;2023-04-29T13:50:58;16.10;62.10
9544;DHT22;30418;51.45933468;7.33152330;2023-04-29T13:53:29;16.10;62.10
9544;DHT22;30418;51.45933468;7.33152330;2023-04-29T13:56:18;16.10;62.10
9544;DHT22;30418;51.45933468;7.33152330;2023-04-29T13:58:49;16.10;62.90